createdAt,value
2023-02-16T00:03:24.837Z,66.01
2023-02-16T00:08:27.772Z,67.26
2023-02-16T00:13:49.028Z,68.41
2023-02-16T00:18:52.525Z,69.00
2023-02-16T00:23:55.535Z,68.70
2023-02-16T00:28:59.916Z,68.03
2023-02-16T00:34:08.374Z,68.69
2023-02-16T00:39:11.312Z,68.49
2023-02-16T00:44:17.656Z,68.71
2023-02-16T00:49:21.568Z,67.98
2023-02-16T00:54:24.520Z,69.12
2023-02-16T00:59:28.881Z,68.96
2023-02-16T01:04:31.880Z,70.19
2023-02-16T01:09:52.442Z,69.46
2023-02-16T01:14:56.815Z,68.57
2023-02-16T01:19:59.741Z,68.69
2023-02-16T01:25:02.738Z,70.23
2023-02-16T01:30:08.067Z,72.02
2023-02-16T01:35:11.480Z,71.32
2023-02-16T01:40:21.867Z,69.63
2023-02-16T01:45:31.727Z,70.32
2023-02-16T01:50:43.503Z,70.31
2023-02-16T01:55:48.401Z,69.93
2023-02-16T02:01:24.357Z,69.46
2023-02-16T02:06:33.286Z,68.92
2023-02-16T02:11:38.550Z,67.54
2023-02-16T02:16:41.613Z,68.11
2023-02-16T02:22:14.629Z,67.78
2023-02-16T02:27:23.834Z,66.86
2023-02-16T02:32:33.028Z,66.67
2023-02-16T02:37:45.447Z,65.92
2023-02-16T02:42:55.698Z,66.38
2023-02-16T02:47:59.133Z,66.43
2023-02-16T02:53:03.733Z,66.61
2023-02-16T02:58:25.486Z,65.89
2023-02-16T03:03:30.610Z,66.27
2023-02-16T03:08:36.049Z,65.93
2023-02-16T03:13:41.708Z,66.02
2023-02-16T03:19:03.311Z,66.00
2023-02-16T03:24:26.360Z,66.58
2023-02-16T03:29:30.853Z,65.74
2023-02-16T03:34:34.679Z,66.13
2023-02-16T03:39:58.028Z,65.76
2023-02-16T03:45:02.407Z,66.96
2023-02-16T03:50:05.587Z,68.04
2023-02-16T03:55:08.743Z,68.71
2023-02-16T04:00:13.952Z,68.11
2023-02-16T04:05:16.999Z,68.20
2023-02-16T04:10:20.060Z,68.17
2023-02-16T04:15:26.427Z,68.60
2023-02-16T04:20:30.340Z,68.59
2023-02-16T04:25:33.261Z,68.75
2023-02-16T04:30:38.849Z,67.85
2023-02-16T04:35:42.960Z,67.82
2023-02-16T04:40:46.009Z,68.98
2023-02-16T04:45:50.409Z,68.23
2023-02-16T04:50:53.536Z,68.26
2023-02-16T04:55:56.475Z,68.74
2023-02-16T05:01:00.962Z,69.09
2023-02-16T05:06:04.005Z,68.91
2023-02-16T05:11:24.292Z,68.37
2023-02-16T05:16:28.714Z,68.21
2023-02-16T05:21:35.555Z,68.72
2023-02-16T05:26:39.431Z,69.38
2023-02-16T05:31:43.992Z,69.91
2023-02-16T05:36:47.066Z,68.88
2023-02-16T05:41:50.232Z,69.45
2023-02-16T05:46:54.692Z,69.29
2023-02-16T05:51:57.728Z,69.78
2023-02-16T05:57:00.800Z,70.96
2023-02-16T06:02:05.210Z,69.99
2023-02-16T06:07:08.160Z,69.79
2023-02-16T06:12:11.144Z,70.51
2023-02-16T06:17:15.627Z,69.90
2023-02-16T06:22:18.572Z,70.44
2023-02-16T06:27:21.600Z,70.33
2023-02-16T06:32:26.013Z,70.49
2023-02-16T06:37:29.060Z,70.97
2023-02-16T06:42:32.019Z,70.84
2023-02-16T06:47:36.552Z,70.53
2023-02-16T06:52:39.549Z,71.57
2023-02-16T06:57:42.589Z,70.96
2023-02-16T07:02:46.960Z,71.35
2023-02-16T07:07:49.914Z,70.73
2023-02-16T07:12:52.890Z,70.68
2023-02-16T07:17:57.280Z,71.83
2023-02-16T07:23:00.284Z,70.98
2023-02-16T07:28:03.194Z,70.50
2023-02-16T07:33:08.034Z,70.15
2023-02-16T07:38:11.143Z,70.08
2023-02-16T07:43:14.147Z,69.69
2023-02-16T07:48:18.769Z,69.25
2023-02-16T07:53:21.793Z,69.82
2023-02-16T07:58:30.664Z,69.73
2023-02-16T08:03:35.153Z,69.38
2023-02-16T08:08:38.750Z,69.10
2023-02-16T08:13:41.738Z,69.00
2023-02-16T08:18:48.284Z,69.00
2023-02-16T08:23:55.494Z,68.56
2023-02-16T08:28:59.255Z,67.76
2023-02-16T08:34:04.389Z,66.73
2023-02-16T08:39:08.808Z,66.49
2023-02-16T08:44:12.086Z,66.46
2023-02-16T08:49:17.565Z,65.43
2023-02-16T08:54:21.557Z,65.01
2023-02-16T08:59:28.172Z,62.67
2023-02-16T09:04:33.714Z,58.97
2023-02-16T09:09:36.682Z,54.64
2023-02-16T09:14:39.789Z,51.38
2023-02-16T09:19:44.943Z,49.20
2023-02-16T09:24:47.890Z,50.32
2023-02-16T09:29:51.526Z,53.20
2023-02-16T09:34:56.030Z,54.21
2023-02-16T09:39:59.058Z,54.92
2023-02-16T09:45:07.673Z,55.84
2023-02-16T09:50:27.646Z,55.94
2023-02-16T09:55:39.596Z,56.15
2023-02-16T10:00:45.738Z,56.52
2023-02-16T10:05:53.244Z,57.00
2023-02-16T10:11:02.437Z,57.00
2023-02-16T10:16:07.542Z,56.66
2023-02-16T10:21:17.169Z,56.51
2023-02-16T10:26:24.686Z,56.81
2023-02-16T10:31:30.621Z,56.38
2023-02-16T10:36:42.992Z,55.72
2023-02-16T10:41:49.776Z,54.96
2023-02-16T10:46:56.726Z,54.41
2023-02-16T10:52:02.804Z,53.52
2023-02-16T10:57:07.279Z,52.63
2023-02-16T11:02:19.219Z,52.19
2023-02-16T11:07:24.174Z,50.43
2023-02-16T11:12:29.338Z,46.31
2023-02-16T11:17:32.777Z,44.09
2023-02-16T11:22:38.387Z,42.12
2023-02-16T11:27:50.736Z,39.64
2023-02-16T11:32:53.804Z,38.51
2023-02-16T11:37:59.128Z,37.71
2023-02-16T11:43:04.310Z,36.52
2023-02-16T11:48:09.488Z,35.03
2023-02-16T11:53:25.715Z,33.41
2023-02-16T11:58:29.916Z,33.10
2023-02-16T12:03:49.194Z,32.40
2023-02-16T12:09:11.416Z,33.17
2023-02-16T12:14:21.639Z,34.00
2023-02-16T12:19:30.899Z,33.13
2023-02-16T12:24:44.811Z,33.65
2023-02-16T12:29:54.061Z,33.26
2023-02-16T12:35:04.667Z,32.23
2023-02-16T12:40:12.853Z,33.00
2023-02-16T12:45:19.302Z,32.84
2023-02-16T12:50:24.820Z,32.77
2023-02-16T12:55:32.437Z,32.41
2023-02-16T13:00:41.411Z,31.94
2023-02-16T13:05:45.925Z,31.37
2023-02-16T13:10:55.542Z,31.82
2023-02-16T13:16:02.482Z,31.35
2023-02-16T13:21:09.559Z,31.56
2023-02-16T13:26:18.602Z,30.73
2023-02-16T13:31:30.630Z,31.21
2023-02-16T13:36:48.510Z,30.86
2023-02-16T13:42:21.924Z,30.36
2023-02-16T13:47:28.994Z,30.46
2023-02-16T13:52:33.339Z,30.42
2023-02-16T13:57:55.421Z,30.08
2023-02-16T14:03:01.472Z,29.61
2023-02-16T14:08:15.101Z,29.30
2023-02-16T14:13:18.507Z,29.42
2023-02-16T14:18:28.881Z,29.20
2023-02-16T14:23:34.867Z,28.81
2023-02-16T14:29:04.736Z,28.78
2023-02-16T14:34:13.686Z,28.96
2023-02-16T14:39:20.144Z,29.16
2023-02-16T14:44:39.477Z,28.73
2023-02-16T14:50:12.639Z,28.62
2023-02-16T14:55:36.432Z,28.19
2023-02-16T15:00:46.003Z,28.29
2023-02-16T15:05:57.309Z,27.66
2023-02-16T15:11:00.213Z,27.71
2023-02-16T15:16:05.629Z,27.32
2023-02-16T15:21:16.892Z,27.45
2023-02-16T15:26:22.130Z,27.17
2023-02-16T15:31:27.102Z,27.88
2023-02-16T15:36:35.517Z,28.81
2023-02-16T15:41:39.290Z,29.19
2023-02-16T15:46:43.834Z,29.19
2023-02-16T15:51:48.480Z,29.02
2023-02-16T15:56:53.582Z,28.93
2023-02-16T16:02:00.445Z,29.71
2023-02-16T16:07:05.251Z,30.01
2023-02-16T16:12:09.848Z,30.19
2023-02-16T16:17:16.661Z,30.53
2023-02-16T16:22:33.130Z,30.31
2023-02-16T16:27:37.385Z,31.04
2023-02-16T16:32:40.239Z,31.11
2023-02-16T16:37:44.521Z,31.49
2023-02-16T16:43:07.030Z,32.22
2023-02-16T16:48:10.968Z,32.53
2023-02-16T16:53:32.412Z,32.45
2023-02-16T16:58:36.684Z,32.94
2023-02-16T17:03:39.746Z,32.78
2023-02-16T17:08:42.713Z,33.00
2023-02-16T17:13:47.043Z,33.62
2023-02-16T17:18:49.920Z,33.97
2023-02-16T17:23:53.651Z,34.57
2023-02-16T17:28:57.974Z,34.68
2023-02-16T17:34:01.111Z,35.04
2023-02-16T17:39:03.938Z,35.70
2023-02-16T17:44:08.234Z,35.74
2023-02-16T17:49:11.507Z,36.55
2023-02-16T17:54:14.376Z,37.02
2023-02-16T17:59:18.684Z,37.49
2023-02-16T18:04:21.598Z,39.41
2023-02-16T18:09:24.917Z,39.16
2023-02-16T18:14:29.201Z,40.85
2023-02-16T18:19:32.115Z,41.79
2023-02-16T18:24:36.355Z,41.84
2023-02-16T18:29:41.250Z,43.02
2023-02-16T18:34:44.107Z,43.32
2023-02-16T18:39:46.960Z,42.69
2023-02-16T18:44:51.264Z,42.45
2023-02-16T18:49:54.143Z,43.78
2023-02-16T18:54:57.000Z,44.21
2023-02-16T19:00:01.262Z,44.45
2023-02-16T19:05:04.535Z,43.96
2023-02-16T19:10:08.480Z,45.30
2023-02-16T19:15:12.773Z,46.17
2023-02-16T19:20:18.377Z,46.27
2023-02-16T19:25:21.369Z,46.67
2023-02-16T19:30:25.673Z,46.08
2023-02-16T19:35:28.580Z,46.77
2023-02-16T19:40:31.786Z,47.05
2023-02-16T19:45:41.265Z,46.83
2023-02-16T19:50:44.192Z,47.23
2023-02-16T19:55:48.503Z,46.75
2023-02-16T20:00:53.183Z,47.65
2023-02-16T20:05:56.051Z,47.41
2023-02-16T20:10:58.917Z,47.31
2023-02-16T20:16:03.847Z,51.07
2023-02-16T20:21:08.037Z,50.39
2023-02-16T20:26:12.072Z,51.14
2023-02-16T20:31:17.722Z,52.04
2023-02-16T20:36:20.713Z,52.96
2023-02-16T20:41:23.599Z,51.62
2023-02-16T20:46:28.135Z,52.41
2023-02-16T20:51:31.023Z,54.69
2023-02-16T20:56:33.939Z,53.79
2023-02-16T21:01:39.511Z,54.69
2023-02-16T21:06:42.428Z,55.76
2023-02-16T21:11:45.386Z,56.14
2023-02-16T21:16:49.648Z,57.31
2023-02-16T21:21:52.825Z,55.79
2023-02-16T21:26:55.679Z,55.97
2023-02-16T21:31:59.949Z,57.09
2023-02-16T21:37:02.893Z,56.89
2023-02-16T21:42:05.785Z,57.35
2023-02-16T21:47:27.564Z,59.90
2023-02-16T21:52:30.423Z,57.73
2023-02-16T21:57:33.650Z,57.84
2023-02-16T22:02:37.908Z,57.05
2023-02-16T22:07:40.779Z,59.62
2023-02-16T22:12:43.670Z,61.26
2023-02-16T22:17:49.501Z,61.28
2023-02-16T22:22:53.346Z,61.77
2023-02-16T22:27:56.215Z,61.56
2023-02-16T22:33:00.475Z,62.08
2023-02-16T22:38:03.330Z,63.41
2023-02-16T22:43:06.203Z,62.61
2023-02-16T22:48:11.437Z,61.76
2023-02-16T22:53:14.323Z,62.34
2023-02-16T22:58:17.196Z,61.98
2023-02-16T23:03:21.462Z,62.01
2023-02-16T23:08:24.728Z,61.84
2023-02-16T23:13:28.668Z,61.35
2023-02-16T23:18:33.292Z,62.26
2023-02-16T23:23:36.243Z,62.01
2023-02-16T23:28:40.444Z,61.86
2023-02-16T23:33:44.725Z,60.49
2023-02-16T23:38:47.636Z,62.94
2023-02-16T23:43:50.466Z,62.09
2023-02-16T23:48:54.764Z,61.68
2023-02-16T23:53:57.907Z,62.24
2023-02-16T23:59:01.544Z,63.14
